Time;durP1;ratioP1;P1;durP2;ratioP2;P2;SDS_P1;SDS_P2;PMS_P1;PMS_P2;Temp;Humidity;BMP_temperature;BMP_pressure;BME280_temperature;BME280_humidity;BME280_pressure;Samples;Min_cycle;Max_cycle;Signal;HPM_P1;HPM_P2
2022/06/03 05:37:01;;;;;;;2.47;2.05;;;13.90;99.90;;;;;;5078115;22;20060;-91
2022/06/03 05:39:42;;;;;;;4.00;2.30;;;13.90;99.90;;;;;;4957166;28;20116;-91
2022/06/03 05:42:32;;;;;;;3.72;2.00;;;14.00;99.90;;;;;;5042101;28;20582;-91
2022/06/03 05:45:24;;;;;;;3.67;2.20;;;14.00;99.90;;;;;;5042614;28;20573;-91
2022/06/03 05:48:08;;;;;;;4.10;2.58;;;14.10;99.90;;;;;;4980162;28;20122;-91
2022/06/03 05:50:59;;;;;;;2.88;2.00;;;14.20;99.90;;;;;;5041772;28;20104;-93
2022/06/03 05:53:45;;;;;;;3.45;1.98;;;14.30;99.90;;;;;;4960108;28;20030;-92
2022/06/03 05:56:36;;;;;;;3.85;2.17;;;14.30;99.90;;;;;;5061623;28;20129;-92
2022/06/03 05:59:11;;;;;;;2.85;2.10;;;14.40;99.90;;;;;;5061510;28;20030;-91
2022/06/03 06:02:16;;;;;;;2.90;2.10;;;14.40;99.90;;;;;;5061632;28;20072;-91
2022/06/03 06:04:53;;;;;;;3.72;2.22;;;14.50;99.90;;;;;;5048280;28;20027;-92
2022/06/03 06:07:58;;;;;;;3.30;2.03;;;14.60;99.90;;;;;;5042004;28;20507;-92
2022/06/03 06:10:48;;;;;;;3.28;2.10;;;14.60;99.90;;;;;;4982469;28;20038;-93
2022/06/03 06:13:41;;;;;;;2.65;2.10;;;14.70;99.90;;;;;;4992512;28;20039;-92
2022/06/03 06:16:37;;;;;;;3.00;2.05;;;14.70;99.90;;;;;;5049011;28;20120;-92
2022/06/03 06:19:40;;;;;;;3.10;1.98;;;14.70;99.90;;;;;;5073101;28;20121;-93
2022/06/03 06:22:25;;;;;;;3.70;2.45;;;14.80;99.90;;;;;;4991569;28;20066;-92
2022/06/03 06:25:02;;;;;;;3.33;2.30;;;14.80;99.90;;;;;;5064826;28;20046;-90
2022/06/03 06:27:49;;;;;;;3.72;2.47;;;14.90;99.90;;;;;;5062195;28;20042;-91
2022/06/03 06:30:56;;;;;;;3.40;2.25;;;14.90;99.90;;;;;;5052254;28;20037;-93
2022/06/03 06:33:57;;;;;;;3.38;2.28;;;14.90;99.90;;;;;;4960122;28;20038;-92
2022/06/03 06:36:32;;;;;;;2.65;1.88;;;15.00;99.90;;;;;;5060858;28;20061;-92
2022/06/03 06:39:10;;;;;;;3.72;1.90;;;15.10;99.90;;;;;;4960556;28;20511;-93
2022/06/03 06:41:43;;;;;;;3.15;2.22;;;15.10;99.90;;;;;;4956774;28;20058;-92
2022/06/03 06:44:12;;;;;;;2.97;2.08;;;15.20;99.90;;;;;;4966163;28;20027;-92
2022/06/03 06:47:16;;;;;;;3.72;2.60;;;15.20;99.90;;;;;;5060917;28;20046;-88
2022/06/03 06:50:07;;;;;;;3.78;2.40;;;15.30;99.90;;;;;;5012754;28;20528;-89
2022/06/03 06:52:40;;;;;;;2.22;2.03;;;15.40;99.90;;;;;;4997153;28;20038;-91
2022/06/03 06:55:09;;;;;;;4.03;2.45;;;15.40;99.90;;;;;;4983047;28;20066;-91
2022/06/03 06:57:45;;;;;;;2.90;2.10;;;15.40;99.90;;;;;;5065512;28;20042;-89
2022/06/03 07:00:26;;;;;;;2.80;2.10;;;15.50;99.90;;;;;;4977930;28;20480;-90
2022/06/03 07:02:58;;;;;;;2.58;2.17;;;15.50;99.90;;;;;;5044671;28;20043;-90
2022/06/03 07:05:39;;;;;;;5.55;2.17;;;15.60;99.90;;;;;;5042964;28;20381;-89
2022/06/03 07:08:10;;;;;;;3.22;1.95;;;15.60;99.90;;;;;;5048644;28;20042;-91
2022/06/03 07:10:56;;;;;;;2.83;2.20;;;15.70;99.90;;;;;;4975625;28;20464;-92
2022/06/03 07:13:42;;;;;;;3.08;2.42;;;15.80;99.90;;;;;;4972930;28;20023;-93
2022/06/03 07:22:19;;;;;;;2.90;1.95;;;16.00;99.90;;;;;;4979856;28;20050;-90
2022/06/03 07:25:07;;;;;;;3.30;2.20;;;16.00;99.90;;;;;;5040844;28;20039;-90
2022/06/03 07:27:50;;;;;;;2.45;2.05;;;16.10;99.90;;;;;;4956543;28;20042;-90
2022/06/03 07:30:37;;;;;;;2.95;2.03;;;16.20;99.90;;;;;;4958002;28;20035;-91
2022/06/03 07:33:21;;;;;;;4.78;2.28;;;16.20;99.90;;;;;;4975350;28;20121;-90
2022/06/03 07:35:55;;;;;;;3.78;2.20;;;16.30;99.90;;;;;;4968099;28;20031;-91
2022/06/03 07:39:00;;;;;;;2.88;2.13;;;16.30;99.90;;;;;;5050130;28;20103;-92
2022/06/03 07:41:55;;;;;;;4.93;1.88;;;16.40;99.90;;;;;;5063954;28;20115;-92
2022/06/03 07:44:51;;;;;;;4.30;2.50;;;16.40;99.90;;;;;;5063187;28;20029;-91
2022/06/03 07:47:18;;;;;;;3.92;2.30;;;16.50;99.90;;;;;;5064256;28;20524;-92
2022/06/03 07:49:52;;;;;;;3.65;2.38;;;16.50;99.90;;;;;;5075530;28;20024;-92
2022/06/03 07:52:41;;;;;;;2.95;2.13;;;16.60;99.90;;;;;;5061981;28;20029;-92
2022/06/03 07:55:12;;;;;;;3.25;1.85;;;16.70;99.90;;;;;;5080290;28;20027;-90
2022/06/03 07:57:38;;;;;;;3.00;1.85;;;16.80;99.90;;;;;;5061669;28;20048;-90
2022/06/03 08:00:11;;;;;;;3.28;1.98;;;16.90;99.90;;;;;;5070202;28;20443;-92
2022/06/03 08:02:37;;;;;;;4.60;2.28;;;17.00;99.90;;;;;;5079630;28;20486;-91
2022/06/03 08:05:09;;;;;;;2.80;1.58;;;17.00;99.90;;;;;;5063134;28;20029;-91
2022/06/03 08:13:14;;;;;;;2.60;1.95;;;17.30;99.90;;;;;;5096791;28;20043;-91
2022/06/03 08:15:51;;;;;;;1.92;1.67;;;17.40;99.90;;;;;;5060203;28;20029;-91
2022/06/03 08:18:18;;;;;;;3.30;1.70;;;17.40;99.90;;;;;;5064860;28;20044;-92
2022/06/03 08:20:53;;;;;;;2.70;1.63;;;17.50;99.90;;;;;;5070755;28;20388;-89
2022/06/03 08:23:20;;;;;;;2.53;1.60;;;17.70;99.90;;;;;;5060014;28;20051;-90
2022/06/03 08:25:51;;;;;;;3.22;1.58;;;17.80;99.90;;;;;;5059951;28;20035;-90
2022/06/03 08:28:21;;;;;;;3.30;1.60;;;17.80;99.90;;;;;;5070566;28;20036;-90
2022/06/03 08:30:50;;;;;;;1.83;1.20;;;17.90;99.90;;;;;;5080229;28;20070;-91
2022/06/03 08:33:21;;;;;;;1.90;1.33;;;18.00;99.90;;;;;;5079950;28;20024;-91
2022/06/03 08:35:48;;;;;;;2.47;1.33;;;18.20;99.90;;;;;;5061097;28;20044;-92
2022/06/03 08:38:23;;;;;;;1.95;1.15;;;18.30;99.90;;;;;;5072613;28;20032;-93
2022/06/03 08:41:08;;;;;;;1.50;1.08;;;18.40;99.90;;;;;;5079876;28;20112;-92
2022/06/03 08:44:00;;;;;;;1.73;1.13;;;18.50;99.90;;;;;;5071578;28;20099;-93
2022/06/03 08:46:28;;;;;;;2.47;1.10;;;18.70;99.90;;;;;;5073882;28;20098;-91
2022/06/03 08:49:02;;;;;;;1.52;1.20;;;18.80;99.90;;;;;;5066635;28;20021;-91
2022/06/03 08:51:42;;;;;;;1.70;1.08;;;18.80;99.90;;;;;;5069722;28;20047;-91
2022/06/03 08:54:26;;;;;;;1.92;1.00;;;18.90;99.90;;;;;;5075879;28;20025;-89
2022/06/03 08:57:16;;;;;;;1.92;0.90;;;19.00;99.90;;;;;;5073899;28;20063;-90
2022/06/03 08:59:52;;;;;;;2.22;1.20;;;19.10;99.90;;;;;;5055913;28;20122;-90
2022/06/03 09:02:29;;;;;;;2.03;1.00;;;19.30;99.90;;;;;;5070595;28;20070;-88
2022/06/03 09:05:21;;;;;;;1.80;1.10;;;19.40;99.90;;;;;;5074224;28;20028;-89
2022/06/03 09:07:54;;;;;;;3.30;0.98;;;19.60;99.90;;;;;;5070662;28;20123;-89
2022/06/03 09:10:40;;;;;;;2.25;1.10;;;19.70;99.90;;;;;;5065926;28;20036;-89
2022/06/03 09:13:30;;;;;;;1.48;1.00;;;19.80;99.90;;;;;;5088442;28;20029;-92
2022/06/03 09:16:05;;;;;;;1.40;0.88;;;20.00;99.90;;;;;;5072596;28;20605;-94
2022/06/03 09:19:23;;;;;;;1.23;0.95;;;20.10;99.90;;;;;;5063669;28;20056;-95
2022/06/03 09:21:51;;;;;;;1.67;0.93;;;20.30;99.90;;;;;;5020802;28;20051;-92
2022/06/03 09:24:38;;;;;;;2.20;1.00;;;20.40;99.70;;;;;;5062697;28;20116;-91
2022/06/03 09:27:06;;;;;;;2.28;1.20;;;20.60;99.40;;;;;;5059564;28;20182;-88
2022/06/03 09:29:33;;;;;;;1.63;1.00;;;20.80;99.10;;;;;;5067495;28;20031;-88
2022/06/03 09:32:02;;;;;;;3.25;1.05;;;21.20;99.40;;;;;;5078080;28;20510;-90
2022/06/03 09:34:43;;;;;;;2.28;0.70;;;22.20;98.70;;;;;;5072257;28;20531;-92
2022/06/03 09:37:25;;;;;;;2.05;0.88;;;23.50;98.00;;;;;;5078291;28;20062;-92
2022/06/03 09:39:57;;;;;;;1.20;0.73;;;24.50;97.00;;;;;;5074610;28;20028;-92
2022/06/03 09:42:43;;;;;;;1.38;0.73;;;25.40;96.30;;;;;;5081215;28;20072;-91
2022/06/03 09:45:10;;;;;;;1.67;0.82;;;26.20;95.70;;;;;;5070741;28;20417;-90
2022/06/03 09:47:36;;;;;;;1.38;0.75;;;26.90;95.10;;;;;;5057105;28;20494;-92
2022/06/03 09:50:02;;;;;;;1.05;0.60;;;27.50;94.40;;;;;;5068295;28;20032;-90
2022/06/03 09:52:28;;;;;;;1.42;0.80;;;28.00;93.70;;;;;;5076606;28;20108;-92
2022/06/03 09:54:59;;;;;;;1.17;0.50;;;28.40;92.70;;;;;;5079300;28;20062;-93
2022/06/03 09:57:35;;;;;;;1.20;0.70;;;28.90;92.00;;;;;;5060203;28;20060;-93
2022/06/03 10:00:11;;;;;;;0.77;0.47;;;29.10;91.40;;;;;;5058615;28;20094;-90
2022/06/03 10:02:37;;;;;;;2.88;0.60;;;29.60;90.70;;;;;;5060337;28;20048;-90
2022/06/03 10:05:05;;;;;;;1.33;0.70;;;29.80;90.40;;;;;;5056491;28;20089;-87
2022/06/03 10:07:31;;;;;;;0.80;0.60;;;30.00;89.20;;;;;;5063427;28;20449;-88
2022/06/03 10:12:50;;;;;;;1.15;0.70;;;30.10;86.20;;;;;;5115190;28;20039;-92
2022/06/03 10:15:38;;;;;;;1.35;0.60;;;30.20;85.50;;;;;;5077473;28;20021;-90
2022/06/03 10:18:24;;;;;;;0.90;0.60;;;30.30;84.00;;;;;;5084070;28;20056;-94
2022/06/03 10:20:53;;;;;;;1.00;0.60;;;30.20;82.60;;;;;;5078725;28;20034;-93
2022/06/03 10:23:21;;;;;;;2.13;0.70;;;30.10;81.90;;;;;;5081912;28;20031;-93
2022/06/03 10:25:51;;;;;;;1.08;0.77;;;30.20;81.20;;;;;;5099808;28;20013;-92
2022/06/03 10:28:18;;;;;;;1.38;0.60;;;30.30;79.10;;;;;;5100379;28;20077;-92
2022/06/03 10:30:45;;;;;;;0.57;0.50;;;30.50;78.50;;;;;;5099152;28;20034;-92
2022/06/03 10:33:21;;;;;;;0.95;0.50;;;30.70;77.80;;;;;;5082153;28;20013;-92
2022/06/03 10:35:49;;;;;;;1.77;0.68;;;30.90;77.40;;;;;;5079783;28;20080;-93
2022/06/03 10:38:21;;;;;;;1.45;0.75;;;31.00;76.20;;;;;;5078190;28;20052;-93
2022/06/03 10:40:52;;;;;;;1.98;0.90;;;31.20;75.40;;;;;;5093279;28;20047;-91
2022/06/03 10:43:32;;;;;;;1.23;0.60;;;31.30;75.00;;;;;;5077482;28;20039;-90
2022/06/03 10:46:13;;;;;;;1.45;0.70;;;31.60;74.00;;;;;;5072881;28;20032;-91
2022/06/03 10:48:40;;;;;;;1.48;0.80;;;31.70;73.40;;;;;;5103356;28;20071;-88
2022/06/03 10:51:16;;;;;;;0.98;0.70;;;31.60;73.10;;;;;;5099008;28;20024;-89
2022/06/03 11:02:02;;;;;;;1.45;0.82;;;31.60;71.10;;;;;;5077378;28;20098;-91
2022/06/03 11:04:36;;;;;;;1.00;0.75;;;31.50;70.30;;;;;;5054465;28;20052;-92
2022/06/03 11:07:20;;;;;;;0.90;0.73;;;31.60;70.00;;;;;;5056307;28;20029;-94
2022/06/03 11:09:57;;;;;;;1.30;0.80;;;31.90;69.70;;;;;;5057042;28;20373;-91
2022/06/03 11:12:25;;;;;;;1.10;0.68;;;32.00;69.60;;;;;;5056843;28;20058;-92
2022/06/03 11:14:56;;;;;;;1.38;0.60;;;32.10;68.80;;;;;;5071007;28;20036;-94
2022/06/03 11:17:32;;;;;;;1.77;0.70;;;32.30;68.40;;;;;;5074107;28;20490;-93
2022/06/03 11:19:59;;;;;;;0.82;0.57;;;32.40;68.30;;;;;;5077836;28;20040;-93
2022/06/03 11:22:31;;;;;;;1.17;0.60;;;32.60;67.70;;;;;;5077663;28;20517;-93
2022/06/03 11:25:02;;;;;;;2.00;0.50;;;32.80;67.20;;;;;;5077228;28;20055;-89
2022/06/03 11:27:47;;;;;;;1.13;0.60;;;32.80;67.40;;;;;;5057100;28;20040;-92
2022/06/03 11:30:33;;;;;;;2.22;0.63;;;32.90;66.60;;;;;;5056368;28;20029;-91
2022/06/03 11:33:09;;;;;;;1.85;0.60;;;32.70;65.60;;;;;;5056526;28;20105;-92
2022/06/03 11:35:57;;;;;;;1.30;0.70;;;32.80;65.90;;;;;;5078791;28;20046;-92
2022/06/03 11:38:33;;;;;;;2.33;0.47;;;33.10;65.20;;;;;;5093781;28;20047;-92
2022/06/03 11:41:03;;;;;;;1.83;0.55;;;33.20;64.50;;;;;;5075547;28;20032;-91
2022/06/03 11:43:32;;;;;;;0.82;0.50;;;33.40;64.60;;;;;;5059540;28;20359;-93
2022/06/03 11:46:03;;;;;;;1.17;0.60;;;33.60;64.10;;;;;;5069136;28;20036;-91
2022/06/03 11:48:30;;;;;;;;;;;33.90;63.50;;;;;;5058075;28;20041;-91
2022/06/03 11:50:57;;;;;;;0.77;0.43;;;33.80;63.20;;;;;;5057181;28;19920;-93
2022/06/03 11:53:29;;;;;;;1.15;0.60;;;33.70;63.20;;;;;;5059692;28;20043;-92
2022/06/03 11:56:00;;;;;;;;;;;33.80;62.60;;;;;;5072858;28;20101;-91
2022/06/03 11:58:51;;;;;;;1.00;0.52;;;33.80;62.50;;;;;;5095407;28;20402;-92
2022/06/03 12:01:42;;;;;;;3.33;0.40;;;34.30;61.90;;;;;;5079648;28;20048;-91
2022/06/03 12:04:16;;;;;;;1.13;0.60;;;34.60;62.30;;;;;;5078853;28;20036;-91
2022/06/03 12:07:23;;;;;;;0.68;0.32;;;34.70;61.00;;;;;;5072098;28;20620;-89
2022/06/03 12:10:11;;;;;;;0.60;0.40;;;34.80;60.60;;;;;;5075238;28;20090;-89
2022/06/03 12:15:31;;;;;;;1.70;0.50;;;34.90;60.80;;;;;;5095113;28;20031;-91
2022/06/03 12:18:32;;;;;;;0.95;0.50;;;34.80;59.90;;;;;;5093411;28;20043;-89
2022/06/03 12:21:32;;;;;;;0.80;0.50;;;34.60;60.00;;;;;;5038295;28;20541;-92
2022/06/03 12:24:32;;;;;;;0.60;0.50;;;34.50;60.00;;;;;;5057678;28;20048;-91
2022/06/03 12:27:03;;;;;;;0.32;0.32;;;34.60;59.60;;;;;;5060652;28;20044;-90
2022/06/03 12:30:18;;;;;;;0.85;0.40;;;34.70;59.30;;;;;;5065316;28;20067;-94
2022/06/03 12:32:54;;;;;;;1.48;0.70;;;34.70;59.00;;;;;;5028576;28;20052;-91
2022/06/03 12:35:42;;;;;;;0.98;0.55;;;34.80;58.80;;;;;;5078108;28;20035;-92
2022/06/03 12:38:20;;;;;;;0.90;0.52;;;34.70;58.40;;;;;;5071605;28;20048;-88
2022/06/03 12:40:47;;;;;;;0.47;0.38;;;34.60;59.00;;;;;;5067752;28;20029;-90
2022/06/03 12:43:28;;;;;;;0.70;0.50;;;34.60;59.80;;;;;;5081063;28;20031;-89
2022/06/03 12:46:09;;;;;;;0.73;0.40;;;34.60;59.30;;;;;;5081533;28;20059;-86
2022/06/03 12:48:47;;;;;;;2.15;0.60;;;34.40;59.30;;;;;;5058221;28;20040;-89
2022/06/03 12:51:25;;;;;;;1.08;0.50;;;34.40;58.90;;;;;;5063110;28;20028;-89
2022/06/03 12:54:05;;;;;;;1.92;0.63;;;34.20;58.90;;;;;;5064580;28;20029;-90
2022/06/03 12:56:50;;;;;;;0.75;0.50;;;33.80;58.00;;;;;;5053497;28;20052;-89
2022/06/03 12:59:52;;;;;;;3.33;0.57;;;33.60;58.10;;;;;;5070446;28;20088;-88
2022/06/03 13:02:27;;;;;;;3.30;0.60;;;33.60;58.10;;;;;;5063971;28;20067;-92
2022/06/03 13:04:55;;;;;;;3.40;0.47;;;33.60;58.20;;;;;;5057043;28;20492;-89
2022/06/03 13:07:27;;;;;;;0.90;0.50;;;33.80;57.80;;;;;;5063676;28;20032;-89
2022/06/03 13:09:56;;;;;;;1.67;0.73;;;33.90;57.40;;;;;;5062417;28;20032;-89
2022/06/03 13:12:42;;;;;;;1.33;0.70;;;34.00;57.40;;;;;;5052209;28;20032;-88
2022/06/03 13:15:23;;;;;;;1.55;0.60;;;34.20;57.60;;;;;;5070774;28;20113;-87
2022/06/03 13:18:18;;;;;;;1.67;0.60;;;34.30;57.50;;;;;;5064027;28;20118;-87
2022/06/03 13:21:00;;;;;;;1.25;0.60;;;34.20;57.40;;;;;;5052941;28;20029;-87
2022/06/03 13:23:34;;;;;;;1.17;0.50;;;33.80;57.40;;;;;;5052660;28;20047;-88
2022/06/03 13:26:22;;;;;;;29.90;4.70;;;33.50;57.40;;;;;;5053032;28;20063;-90
2022/06/03 13:28:53;;;;;;;11.50;2.55;;;33.20;57.30;;;;;;5069301;28;20058;-90
2022/06/03 13:31:40;;;;;;;4.33;1.03;;;33.00;57.70;;;;;;5063805;28;20047;-87
2022/06/03 13:34:08;;;;;;;2.33;0.77;;;33.00;57.90;;;;;;5053609;28;20109;-88
2022/06/03 13:36:39;;;;;;;3.88;0.80;;;33.20;57.60;;;;;;5066499;28;20093;-87
2022/06/03 13:39:07;;;;;;;2.70;0.80;;;33.40;57.30;;;;;;5079608;28;20072;-88
2022/06/03 13:44:40;;;;;;;5.57;1.40;;;33.80;57.00;;;;;;5072154;28;20497;-88
2022/06/03 13:47:28;;;;;;;4.13;1.05;;;34.00;56.60;;;;;;5086244;28;20115;-87
2022/06/03 13:50:12;;;;;;;1.95;0.80;;;33.80;56.60;;;;;;5078123;28;20040;-85
2022/06/03 13:52:47;;;;;;;8.63;2.08;;;33.30;56.60;;;;;;5071831;28;20040;-89
2022/06/03 13:55:34;;;;;;;5.72;1.90;;;32.80;57.20;;;;;;5060683;28;20028;-89
2022/06/03 13:58:08;;;;;;;9.32;2.00;;;32.50;57.40;;;;;;5060705;28;20051;-90
2022/06/03 14:00:58;;;;;;;7.80;1.40;;;32.30;57.60;;;;;;5085032;28;20037;-90
2022/06/03 14:03:33;;;;;;;5.10;1.65;;;32.10;57.30;;;;;;5070752;28;20442;-89
2022/06/03 14:06:20;;;;;;;3.42;0.95;;;31.80;58.00;;;;;;5056315;28;20698;-90
2022/06/03 14:08:56;;;;;;;5.38;1.33;;;31.60;58.40;;;;;;5083447;28;20020;-89
2022/06/03 14:11:37;;;;;;;4.72;1.00;;;31.50;58.90;;;;;;5077926;28;20036;-89
2022/06/03 14:14:02;;;;;;;1.98;0.88;;;31.20;58.10;;;;;;5088923;28;20488;-90
2022/06/03 14:16:41;;;;;;;1.55;0.70;;;30.90;58.20;;;;;;5073808;28;20054;-90
2022/06/03 14:19:09;;;;;;;1.45;0.60;;;30.90;58.50;;;;;;5072726;28;20040;-91
2022/06/03 14:21:38;;;;;;;3.55;0.80;;;31.00;58.30;;;;;;5060115;28;20044;-93
2022/06/03 14:24:18;;;;;;;1.33;0.70;;;30.90;58.10;;;;;;5066091;28;20507;-91
2022/06/03 14:27:21;;;;;;;2.60;0.77;;;30.60;58.30;;;;;;5070671;28;20095;-90
2022/06/03 14:29:56;;;;;;;1.42;0.65;;;30.40;58.60;;;;;;5064573;28;20036;-90
2022/06/03 14:32:25;;;;;;;0.93;0.60;;;30.20;58.90;;;;;;5054573;28;20113;-90
2022/06/03 14:35:09;;;;;;;0.70;0.60;;;30.20;59.10;;;;;;5067550;28;20036;-88
2022/06/03 14:38:11;;;;;;;6.72;1.65;;;30.20;59.20;;;;;;5069040;28;20045;-88
2022/06/03 14:40:41;;;;;;;2.55;1.02;;;30.30;60.10;;;;;;5007288;28;20037;-87
2022/06/03 14:43:11;;;;;;;2.25;0.98;;;30.40;60.30;;;;;;5076598;28;20055;-89
2022/06/03 14:45:45;;;;;;;2.13;0.90;;;30.50;59.80;;;;;;5066858;28;20036;-87
2022/06/03 14:48:12;;;;;;;1.58;0.80;;;30.80;59.90;;;;;;5064940;28;20058;-88
2022/06/03 14:50:47;;;;;;;1.73;0.80;;;30.90;59.70;;;;;;5073811;28;20119;-91
2022/06/03 14:53:22;;;;;;;1.40;0.73;;;31.00;59.50;;;;;;5054776;28;20028;-89
2022/06/03 14:56:20;;;;;;;0.95;0.63;;;30.80;59.20;;;;;;5064041;28;20992;-87
2022/06/03 14:58:49;;;;;;;1.60;0.70;;;30.90;59.50;;;;;;5066724;28;20044;-87
2022/06/03 15:01:40;;;;;;;1.13;0.80;;;31.10;59.60;;;;;;5064504;28;20032;-87
2022/06/03 15:04:43;;;;;;;1.08;0.50;;;31.30;59.10;;;;;;5086322;28;20054;-93
2022/06/03 15:07:34;;;;;;;1.15;0.60;;;31.30;58.90;;;;;;5053044;28;20063;-86
2022/06/03 15:10:10;;;;;;;0.80;0.60;;;31.10;58.80;;;;;;5059035;28;20363;-87
2022/06/03 15:12:36;;;;;;;1.10;0.52;;;31.00;59.60;;;;;;5066790;28;20043;-87
2022/06/03 15:15:04;;;;;;;0.95;0.80;;;30.90;58.90;;;;;;5066837;28;20073;-87
2022/06/03 15:17:33;;;;;;;1.60;0.57;;;30.90;59.00;;;;;;5057937;28;20033;-90
2022/06/03 15:20:03;;;;;;;2.22;0.70;;;30.60;59.10;;;;;;5081759;28;20078;-92
2022/06/03 15:22:35;;;;;;;0.90;0.57;;;30.20;59.70;;;;;;5064352;28;20041;-91
2022/06/03 15:25:13;;;;;;;1.23;0.55;;;29.90;60.80;;;;;;5079665;28;20032;-91
2022/06/03 15:27:51;;;;;;;0.60;0.60;;;29.70;60.10;;;;;;5063543;28;20044;-90
2022/06/03 15:30:32;;;;;;;0.90;0.60;;;29.60;60.50;;;;;;5058156;28;20037;-89
2022/06/03 15:32:59;;;;;;;1.38;0.60;;;29.60;60.70;;;;;;5075907;28;20032;-87
2022/06/03 15:35:30;;;;;;;0.70;0.50;;;29.70;61.10;;;;;;5063794;28;20040;-89
2022/06/03 15:37:59;;;;;;;1.67;0.60;;;29.70;60.60;;;;;;5071432;28;20052;-90
2022/06/03 15:40:34;;;;;;;1.48;0.60;;;29.30;60.60;;;;;;5071049;28;20036;-89
2022/06/03 15:43:02;;;;;;;2.22;0.80;;;29.30;60.60;;;;;;5071384;28;20049;-88
2022/06/03 15:45:34;;;;;;;0.77;0.60;;;29.20;60.50;;;;;;5069334;28;20063;-89
2022/06/03 15:48:01;;;;;;;1.52;0.70;;;29.10;60.60;;;;;;5059580;28;20593;-88
2022/06/03 15:50:27;;;;;;;1.35;0.57;;;29.10;60.80;;;;;;5083876;28;20115;-89
2022/06/03 15:52:54;;;;;;;2.08;0.68;;;29.20;60.60;;;;;;5075211;28;20635;-89
2022/06/03 15:55:34;;;;;;;0.77;0.70;;;29.10;60.30;;;;;;5088446;28;20099;-88
2022/06/03 15:58:23;;;;;;;3.13;0.80;;;28.70;60.10;;;;;;5083974;28;20081;-88
2022/06/03 16:01:26;;;;;;;1.25;0.70;;;28.60;60.50;;;;;;5093640;28;20065;-89
2022/06/03 16:04:06;;;;;;;0.70;0.60;;;28.60;60.80;;;;;;5066251;28;20044;-87
2022/06/03 16:06:55;;;;;;;1.70;0.55;;;28.70;61.00;;;;;;5056029;28;20068;-87
2022/06/03 16:09:25;;;;;;;2.45;0.60;;;28.70;60.90;;;;;;5072530;28;20092;-85
2022/06/03 16:12:09;;;;;;;1.40;0.73;;;28.60;60.90;;;;;;5056015;28;20434;-87
2022/06/03 16:14:56;;;;;;;0.80;0.50;;;28.30;60.90;;;;;;5056348;28;20044;-88
2022/06/03 16:17:37;;;;;;;0.88;0.50;;;28.00;61.10;;;;;;5055853;28;20679;-89
2022/06/03 16:20:06;;;;;;;0.70;0.50;;;27.80;61.40;;;;;;5055355;28;20486;-88
2022/06/03 16:23:06;;;;;;;1.50;0.60;;;27.60;61.70;;;;;;5055378;28;20040;-87
2022/06/03 16:26:03;;;;;;;0.93;0.60;;;27.30;61.70;;;;;;5072998;28;20056;-87
2022/06/03 16:28:54;;;;;;;1.25;0.47;;;27.10;62.20;;;;;;5055029;28;20760;-89
2022/06/03 16:31:30;;;;;;;1.05;0.68;;;26.90;62.30;;;;;;5059033;28;20737;-87
2022/06/03 16:34:13;;;;;;;0.93;0.70;;;26.70;62.40;;;;;;5073710;28;20489;-88
2022/06/03 16:37:01;;;;;;;;;;;26.50;62.60;;;;;;5070407;28;20033;-88
2022/06/03 16:40:03;;;;;;;1.35;0.60;;;26.20;62.80;;;;;;5053973;28;19916;-86
2022/06/03 16:42:46;;;;;;;1.65;0.60;;;26.10;62.70;;;;;;5053968;28;20048;-87
2022/06/03 16:48:19;;;;;;;0.63;0.52;;;25.70;63.00;;;;;;5076589;28;19923;-88
2022/06/03 16:50:47;;;;;;;0.90;0.60;;;25.70;63.20;;;;;;5071084;28;20032;-88
2022/06/03 16:53:15;;;;;;;1.02;0.60;;;25.70;63.30;;;;;;5070715;28;20067;-88
2022/06/03 16:55:54;;;;;;;1.10;0.50;;;25.70;63.50;;;;;;5061563;28;20486;-88
2022/06/03 16:58:20;;;;;;;0.40;0.40;;;25.60;63.50;;;;;;5060752;28;20035;-89
2022/06/03 17:01:06;;;;;;;1.23;0.70;;;25.60;63.70;;;;;;5070427;28;20056;-87
2022/06/03 17:03:37;;;;;;;0.80;0.63;;;25.60;63.60;;;;;;5054102;28;20550;-88
2022/06/03 17:06:09;;;;;;;1.52;0.70;;;25.50;63.70;;;;;;5064831;28;20032;-89
2022/06/03 17:08:36;;;;;;;5.22;0.80;;;25.60;63.80;;;;;;5074908;28;20056;-86
2022/06/03 17:11:15;;;;;;;0.90;0.70;;;25.50;63.80;;;;;;5071733;28;20036;-87
2022/06/03 17:13:44;;;;;;;1.05;0.80;;;25.60;64.00;;;;;;5072384;28;20082;-88
2022/06/03 17:16:11;;;;;;;2.70;0.77;;;25.60;64.10;;;;;;5072739;28;20086;-88
2022/06/03 17:18:37;;;;;;;1.30;0.70;;;25.50;64.30;;;;;;5071624;28;20713;-88
2022/06/03 17:21:39;;;;;;;0.77;0.60;;;25.40;64.50;;;;;;5073159;28;20375;-88
2022/06/03 17:24:41;;;;;;;0.82;0.60;;;25.30;64.80;;;;;;5066198;28;20522;-89
2022/06/03 17:27:25;;;;;;;1.17;0.50;;;25.20;65.00;;;;;;5058473;28;20032;-88
2022/06/03 17:30:02;;;;;;;2.53;0.88;;;25.10;65.20;;;;;;5063894;28;20494;-89
2022/06/03 17:32:46;;;;;;;1.10;0.70;;;25.00;65.30;;;;;;5068776;28;20034;-87
2022/06/03 17:35:22;;;;;;;1.02;0.70;;;24.80;65.20;;;;;;5065641;28;20738;-89
2022/06/03 17:38:17;;;;;;;3.80;0.80;;;24.70;65.50;;;;;;5084702;28;20056;-87
2022/06/03 17:40:53;;;;;;;1.52;0.70;;;24.60;65.60;;;;;;5087224;28;20494;-89
2022/06/03 17:43:37;;;;;;;1.67;0.65;;;24.60;65.80;;;;;;5059004;28;20081;-87
2022/06/03 17:46:49;;;;;;;3.25;0.80;;;24.60;65.80;;;;;;5071506;28;20032;-95
